createdAt,value
2023-01-03T00:00:23.510Z,10.00
2023-01-03T00:01:23.446Z,8.80
2023-01-03T00:02:23.531Z,9.10
2023-01-03T00:03:23.421Z,9.90
2023-01-03T00:04:23.536Z,10.00
2023-01-03T00:05:23.485Z,10.00
2023-01-03T00:06:23.582Z,9.50
2023-01-03T00:07:23.398Z,10.10
2023-01-03T00:08:23.412Z,10.30
2023-01-03T00:09:23.454Z,11.50
2023-01-03T00:10:23.467Z,11.00
2023-01-03T00:11:23.365Z,9.90
2023-01-03T00:12:30.412Z,8.70
2023-01-03T00:13:25.367Z,10.20
2023-01-03T00:14:23.399Z,10.70
2023-01-03T00:15:23.376Z,9.70
2023-01-03T00:16:23.478Z,8.70
2023-01-03T00:17:23.671Z,8.90
2023-01-03T00:18:23.340Z,7.30
2023-01-03T00:19:23.419Z,6.90
2023-01-03T00:20:23.420Z,8.70
2023-01-03T00:21:23.311Z,7.00
2023-01-03T00:22:23.412Z,8.00
2023-01-03T00:23:23.279Z,7.40
2023-01-03T00:24:23.387Z,7.80
2023-01-03T00:25:23.324Z,8.80
2023-01-03T00:26:23.336Z,10.60
2023-01-03T00:27:23.246Z,6.90
2023-01-03T00:28:23.298Z,7.40
2023-01-03T00:29:23.232Z,8.30
2023-01-03T00:30:23.305Z,8.50
2023-01-03T00:31:23.326Z,8.70
2023-01-03T00:32:23.281Z,7.20
2023-01-03T00:33:23.225Z,7.80
2023-01-03T00:34:23.243Z,7.10
2023-01-03T00:35:23.219Z,8.10
2023-01-03T00:36:23.181Z,8.50
2023-01-03T00:37:23.189Z,8.50
2023-01-03T00:38:23.176Z,6.90
2023-01-03T00:39:23.164Z,7.70
2023-01-03T00:40:23.268Z,8.80
2023-01-03T00:41:23.154Z,8.30
2023-01-03T00:42:23.208Z,8.30
2023-01-03T00:43:23.118Z,7.20
2023-01-03T00:44:23.136Z,8.20
2023-01-03T00:45:25.561Z,7.60
2023-01-03T00:46:24.227Z,8.10
2023-01-03T00:47:23.151Z,7.20
2023-01-03T00:48:23.101Z,5.70
2023-01-03T00:49:23.108Z,5.40
2023-01-03T00:50:23.124Z,7.70
2023-01-03T00:51:23.067Z,6.40
2023-01-03T00:52:23.057Z,6.40
2023-01-03T00:53:23.054Z,7.10
2023-01-03T00:54:23.045Z,7.00
2023-01-03T00:55:23.077Z,7.30
2023-01-03T00:56:23.022Z,7.00
2023-01-03T00:57:23.035Z,8.70
2023-01-03T00:58:23.012Z,7.20
2023-01-03T00:59:23.104Z,8.10
2023-01-03T01:00:23.031Z,9.90
2023-01-03T01:01:23.012Z,9.50
2023-01-03T01:02:23.131Z,8.40
2023-01-03T01:03:23.132Z,8.00
2023-01-03T01:04:22.983Z,7.80
2023-01-03T01:05:22.977Z,9.60
2023-01-03T01:06:22.934Z,7.40
2023-01-03T01:07:23.016Z,7.90
2023-01-03T01:08:22.987Z,7.90
2023-01-03T01:09:22.945Z,8.10
2023-01-03T01:10:22.977Z,7.70
2023-01-03T01:11:22.930Z,8.70
2023-01-03T01:12:22.917Z,6.60
2023-01-03T01:13:22.926Z,9.00
2023-01-03T01:14:22.878Z,6.40
2023-01-03T01:15:22.994Z,7.40
2023-01-03T01:16:22.945Z,7.60
2023-01-03T01:17:23.281Z,8.80
2023-01-03T01:18:22.924Z,7.50
2023-01-03T01:19:22.925Z,8.10
2023-01-03T01:20:23.043Z,8.20
2023-01-03T01:21:22.876Z,8.60
2023-01-03T01:22:22.818Z,7.00
2023-01-03T01:23:22.802Z,6.90
2023-01-03T01:24:22.829Z,8.60
2023-01-03T01:25:22.819Z,8.20
2023-01-03T01:26:22.828Z,7.70
2023-01-03T01:27:23.878Z,11.00
2023-01-03T01:28:22.841Z,7.70
2023-01-03T01:29:22.784Z,9.80
2023-01-03T01:30:22.820Z,7.90
2023-01-03T01:31:22.835Z,8.30
2023-01-03T01:32:22.957Z,7.60
2023-01-03T01:33:22.737Z,7.40
2023-01-03T01:34:22.852Z,8.50
2023-01-03T01:35:22.870Z,9.20
2023-01-03T01:36:22.733Z,9.30
2023-01-03T01:37:22.721Z,7.90
2023-01-03T01:38:22.731Z,8.40
2023-01-03T01:39:22.752Z,7.60
2023-01-03T01:40:22.822Z,7.50
2023-01-03T01:41:22.790Z,7.50
2023-01-03T01:42:27.307Z,9.40
2023-01-03T01:43:23.711Z,8.40
2023-01-03T01:44:22.655Z,6.20
2023-01-03T01:45:22.645Z,7.00
2023-01-03T01:46:22.771Z,8.30
2023-01-03T01:47:22.648Z,8.50
2023-01-03T01:48:22.647Z,10.40
2023-01-03T01:49:22.647Z,9.90
2023-01-03T01:50:22.624Z,8.00
2023-01-03T01:51:22.659Z,6.80
2023-01-03T01:52:22.597Z,10.70
2023-01-03T01:53:22.605Z,9.30
2023-01-03T01:54:22.581Z,8.50
2023-01-03T01:55:22.584Z,9.20
2023-01-03T01:56:22.596Z,8.50
2023-01-03T01:57:22.547Z,8.90
2023-01-03T01:58:22.542Z,6.80
2023-01-03T01:59:22.537Z,9.00
2023-01-03T02:00:22.519Z,10.00
2023-01-03T02:01:22.732Z,8.80
2023-01-03T02:02:22.811Z,9.20
2023-01-03T02:03:22.534Z,10.40
2023-01-03T02:04:22.513Z,13.30
2023-01-03T02:05:22.501Z,13.90
2023-01-03T02:06:22.504Z,12.90
2023-01-03T02:07:22.549Z,9.00
2023-01-03T02:08:22.623Z,5.70
2023-01-03T02:09:22.475Z,5.20
2023-01-03T02:10:22.491Z,5.50
2023-01-03T02:11:22.519Z,3.20
2023-01-03T02:12:22.447Z,5.00
2023-01-03T02:13:22.484Z,4.30
2023-01-03T02:14:22.434Z,4.50
2023-01-03T02:15:22.480Z,6.30
2023-01-03T02:16:22.545Z,5.30
2023-01-03T02:17:22.442Z,8.00
2023-01-03T02:18:22.403Z,6.20
2023-01-03T02:19:22.384Z,6.60
2023-01-03T02:20:22.388Z,5.60
2023-01-03T02:21:22.415Z,7.30
2023-01-03T02:22:22.361Z,6.40
2023-01-03T02:23:23.348Z,6.40
2023-01-03T02:24:22.370Z,6.00
2023-01-03T02:25:22.329Z,5.80
2023-01-03T02:26:22.340Z,5.50
2023-01-03T02:27:22.320Z,4.70
2023-01-03T02:28:22.411Z,5.90
2023-01-03T02:29:22.292Z,5.20
2023-01-03T02:30:22.301Z,5.10
2023-01-03T02:31:22.363Z,6.40
2023-01-03T02:32:22.308Z,5.70
2023-01-03T02:33:22.287Z,5.20
2023-01-03T02:34:22.283Z,5.00
2023-01-03T02:35:22.270Z,6.80
2023-01-03T02:36:22.287Z,5.20
2023-01-03T02:37:22.246Z,5.20
2023-01-03T02:38:23.229Z,6.00
2023-01-03T02:39:23.994Z,6.10
2023-01-03T02:40:23.245Z,4.90
2023-01-03T02:41:22.224Z,4.50
2023-01-03T02:42:22.200Z,6.40
2023-01-03T02:43:22.191Z,5.70
2023-01-03T02:44:22.174Z,5.20
2023-01-03T02:45:22.177Z,5.80
2023-01-03T02:46:22.259Z,5.70
2023-01-03T02:47:22.157Z,4.40
2023-01-03T02:48:22.153Z,4.70
2023-01-03T02:49:22.137Z,5.40
2023-01-03T02:50:22.121Z,6.60
2023-01-03T02:51:23.148Z,5.60
2023-01-03T02:52:22.117Z,5.70
2023-01-03T02:53:22.110Z,5.80
2023-01-03T02:54:22.107Z,4.50
2023-01-03T02:55:22.145Z,6.20
2023-01-03T02:56:22.119Z,6.30
2023-01-03T02:57:22.082Z,4.90
2023-01-03T02:58:22.063Z,4.70
2023-01-03T02:59:22.080Z,6.40
2023-01-03T03:00:22.066Z,6.50
2023-01-03T03:01:22.178Z,5.50
2023-01-03T03:02:22.236Z,5.80
2023-01-03T03:03:22.055Z,4.40
2023-01-03T03:04:22.022Z,5.30
2023-01-03T03:05:22.027Z,5.40
2023-01-03T03:06:22.037Z,4.60
2023-01-03T03:07:21.997Z,5.10
2023-01-03T03:08:22.001Z,5.80
2023-01-03T03:09:22.005Z,6.80
2023-01-03T03:10:21.977Z,5.70
2023-01-03T03:11:22.007Z,6.80
2023-01-03T03:12:21.972Z,6.60
2023-01-03T03:13:21.955Z,6.00
2023-01-03T03:14:21.958Z,6.50
2023-01-03T03:15:21.942Z,6.50
2023-01-03T03:16:22.007Z,6.00
2023-01-03T03:17:21.955Z,5.90
2023-01-03T03:18:21.926Z,5.70
2023-01-03T03:19:21.917Z,7.40
2023-01-03T03:20:21.907Z,7.00
2023-01-03T03:21:21.899Z,7.70
2023-01-03T03:22:21.921Z,4.60
2023-01-03T03:23:21.876Z,5.60
2023-01-03T03:24:21.870Z,6.40
2023-01-03T03:25:22.689Z,5.80
2023-01-03T03:26:21.856Z,6.70
2023-01-03T03:27:21.885Z,6.20
2023-01-03T03:28:21.845Z,6.10
2023-01-03T03:29:21.837Z,7.00
2023-01-03T03:30:21.829Z,6.30
2023-01-03T03:31:21.915Z,5.90
2023-01-03T03:32:21.951Z,5.70
2023-01-03T03:33:21.811Z,6.30
2023-01-03T03:34:21.800Z,5.10
2023-01-03T03:35:21.787Z,7.00
2023-01-03T03:36:21.783Z,6.30
2023-01-03T03:37:21.796Z,7.10
2023-01-03T03:38:21.777Z,8.00
2023-01-03T03:39:21.768Z,6.40
2023-01-03T03:40:21.751Z,6.20
2023-01-03T03:41:21.738Z,5.80
2023-01-03T03:42:21.762Z,6.40
2023-01-03T03:43:21.729Z,7.40
2023-01-03T03:44:21.716Z,7.10
2023-01-03T03:45:21.738Z,7.50
2023-01-03T03:46:21.795Z,7.30
2023-01-03T03:47:21.779Z,5.80
2023-01-03T03:48:21.697Z,6.70
2023-01-03T03:49:21.688Z,6.60
2023-01-03T03:50:21.674Z,6.20
2023-01-03T03:51:21.660Z,6.50
2023-01-03T03:52:21.650Z,6.20
2023-01-03T03:53:21.668Z,6.30
2023-01-03T03:54:21.642Z,5.40
2023-01-03T03:55:21.625Z,7.60
2023-01-03T03:56:21.625Z,6.00
2023-01-03T03:57:21.633Z,5.90
2023-01-03T03:58:21.635Z,5.20
2023-01-03T03:59:21.606Z,6.70
2023-01-03T04:00:21.640Z,5.10
2023-01-03T04:01:21.615Z,7.70
2023-01-03T04:02:21.714Z,7.80
2023-01-03T04:03:22.675Z,10.10
2023-01-03T04:04:21.570Z,7.70
2023-01-03T04:05:21.574Z,8.40
2023-01-03T04:06:21.548Z,7.90
2023-01-03T04:07:21.545Z,7.60
2023-01-03T04:08:21.604Z,7.80
2023-01-03T04:09:21.548Z,7.10
2023-01-03T04:10:21.536Z,7.90
2023-01-03T04:11:21.517Z,7.90
2023-01-03T04:12:21.511Z,6.80
2023-01-03T04:13:21.549Z,7.50
2023-01-03T04:14:21.495Z,8.40
2023-01-03T04:15:21.484Z,6.90
2023-01-03T04:16:21.520Z,7.80
2023-01-03T04:17:21.490Z,7.90
2023-01-03T04:18:21.486Z,7.70
2023-01-03T04:19:21.455Z,8.60
2023-01-03T04:20:21.445Z,8.10
2023-01-03T04:21:21.474Z,7.00
2023-01-03T04:22:21.450Z,7.80
2023-01-03T04:23:21.483Z,7.00
2023-01-03T04:24:21.430Z,6.40
2023-01-03T04:25:21.437Z,6.20
2023-01-03T04:26:21.409Z,6.10
2023-01-03T04:27:21.410Z,7.00
2023-01-03T04:28:21.436Z,6.10
2023-01-03T04:29:21.414Z,5.70
2023-01-03T04:30:21.366Z,6.00
2023-01-03T04:31:21.417Z,6.60
2023-01-03T04:32:21.356Z,7.40
2023-01-03T04:33:21.394Z,8.20
2023-01-03T04:34:22.333Z,6.10
2023-01-03T04:35:21.334Z,7.60
2023-01-03T04:36:21.406Z,7.80
2023-01-03T04:37:21.332Z,7.10
2023-01-03T04:38:21.330Z,7.80
2023-01-03T04:39:21.310Z,6.40
2023-01-03T04:40:21.295Z,6.20
2023-01-03T04:41:21.307Z,10.10
2023-01-03T04:42:21.283Z,7.50
2023-01-03T04:43:21.320Z,7.90
2023-01-03T04:44:21.310Z,7.30
2023-01-03T04:45:21.268Z,5.70
2023-01-03T04:46:21.386Z,4.90
2023-01-03T04:47:21.243Z,5.10
2023-01-03T04:48:21.270Z,5.20
2023-01-03T04:49:21.259Z,3.50
2023-01-03T04:50:21.224Z,4.30
2023-01-03T04:51:21.270Z,5.80
2023-01-03T04:52:21.221Z,5.90
2023-01-03T04:53:21.236Z,6.60
2023-01-03T04:54:22.182Z,7.30
2023-01-03T04:55:21.190Z,7.30
2023-01-03T04:56:21.200Z,6.50
2023-01-03T04:57:21.175Z,5.90
2023-01-03T04:58:21.175Z,6.20
2023-01-03T04:59:21.175Z,6.70
2023-01-03T05:00:21.143Z,5.60
2023-01-03T05:01:21.273Z,6.90
2023-01-03T05:02:21.290Z,5.90
2023-01-03T05:03:27.477Z,6.90
2023-01-03T05:04:23.165Z,8.50
2023-01-03T05:05:21.108Z,5.80
2023-01-03T05:06:21.123Z,5.80
2023-01-03T05:07:21.142Z,6.40
2023-01-03T05:08:21.152Z,8.30
2023-01-03T05:09:21.117Z,6.90
2023-01-03T05:10:22.101Z,5.80
2023-01-03T05:11:21.051Z,6.50
2023-01-03T05:12:21.036Z,5.80
2023-01-03T05:13:21.037Z,7.20
2023-01-03T05:14:21.954Z,7.40
2023-01-03T05:15:21.029Z,5.90
2023-01-03T05:16:21.087Z,6.00
2023-01-03T05:17:21.007Z,6.90
2023-01-03T05:18:21.008Z,7.90
2023-01-03T05:19:21.017Z,10.20
2023-01-03T05:20:20.986Z,8.70
2023-01-03T05:21:20.983Z,7.80
2023-01-03T05:22:20.974Z,6.20
2023-01-03T05:23:21.045Z,7.90
2023-01-03T05:24:20.987Z,7.90
2023-01-03T05:25:20.950Z,9.20
2023-01-03T05:26:20.950Z,7.60
2023-01-03T05:27:20.938Z,8.50
2023-01-03T05:28:20.921Z,8.40
2023-01-03T05:29:20.952Z,6.90
2023-01-03T05:30:20.931Z,6.60
2023-01-03T05:31:21.047Z,6.60
2023-01-03T05:32:20.994Z,7.80
2023-01-03T05:33:21.892Z,6.10
2023-01-03T05:34:20.939Z,8.60
2023-01-03T05:35:20.878Z,7.70
2023-01-03T05:36:20.875Z,7.90
2023-01-03T05:37:20.850Z,7.90
2023-01-03T05:38:20.849Z,6.50
2023-01-03T05:39:20.860Z,7.80
2023-01-03T05:40:20.842Z,7.80
2023-01-03T05:41:20.828Z,7.10
2023-01-03T05:42:20.823Z,10.10
2023-01-03T05:43:20.816Z,7.60
2023-01-03T05:44:20.827Z,9.60
2023-01-03T05:45:20.791Z,6.20
2023-01-03T05:46:20.862Z,7.40
2023-01-03T05:47:20.782Z,6.50
2023-01-03T05:48:20.776Z,8.40
2023-01-03T05:49:20.810Z,8.10
2023-01-03T05:50:20.760Z,7.70
2023-01-03T05:51:20.737Z,8.50
2023-01-03T05:52:21.740Z,6.90
2023-01-03T05:53:20.754Z,8.20
2023-01-03T05:54:20.756Z,7.70
2023-01-03T05:55:20.723Z,6.80
2023-01-03T05:56:20.705Z,6.20
2023-01-03T05:57:20.711Z,6.20
2023-01-03T05:58:20.680Z,8.90
2023-01-03T05:59:21.761Z,7.80
2023-01-03T06:00:20.687Z,6.80
2023-01-03T06:01:20.725Z,7.20
2023-01-03T06:02:20.688Z,7.80
2023-01-03T06:03:20.650Z,6.40
2023-01-03T06:04:20.726Z,6.60
2023-01-03T06:05:20.632Z,7.60
2023-01-03T06:06:20.626Z,8.10
2023-01-03T06:07:20.629Z,7.10
2023-01-03T06:08:20.617Z,5.80
2023-01-03T06:09:20.619Z,7.50
2023-01-03T06:10:20.635Z,6.90
2023-01-03T06:11:20.597Z,8.20
2023-01-03T06:12:20.605Z,8.40
2023-01-03T06:13:21.577Z,10.00
2023-01-03T06:14:20.582Z,13.60
2023-01-03T06:15:20.588Z,14.90
2023-01-03T06:16:24.663Z,16.70
2023-01-03T06:17:21.629Z,18.50
2023-01-03T06:18:20.558Z,17.70
2023-01-03T06:19:20.594Z,17.60
2023-01-03T06:20:20.565Z,15.80
2023-01-03T06:21:20.549Z,16.50
2023-01-03T06:22:20.525Z,14.40
2023-01-03T06:23:20.533Z,11.40
2023-01-03T06:24:20.503Z,9.80
2023-01-03T06:25:20.521Z,9.50
2023-01-03T06:26:20.479Z,10.60
2023-01-03T06:27:20.472Z,8.90
2023-01-03T06:28:20.461Z,8.00
2023-01-03T06:29:20.513Z,8.20
2023-01-03T06:30:20.471Z,10.40
2023-01-03T06:31:20.506Z,9.40
2023-01-03T06:32:20.437Z,8.90
2023-01-03T06:33:20.411Z,11.80
2023-01-03T06:34:20.411Z,13.40
2023-01-03T06:35:20.429Z,13.40
2023-01-03T06:36:20.396Z,13.00
2023-01-03T06:37:20.392Z,12.10
2023-01-03T06:38:20.375Z,11.10
2023-01-03T06:39:20.398Z,10.70
2023-01-03T06:40:20.390Z,8.50
2023-01-03T06:41:20.345Z,8.80
2023-01-03T06:42:21.361Z,8.30
2023-01-03T06:43:20.347Z,8.40
2023-01-03T06:44:20.362Z,9.80
2023-01-03T06:45:20.350Z,8.60
2023-01-03T06:46:20.381Z,9.60
2023-01-03T06:47:20.306Z,10.70
2023-01-03T06:48:20.301Z,11.00
2023-01-03T06:49:20.298Z,12.70
2023-01-03T06:50:20.308Z,10.70
2023-01-03T06:51:20.276Z,12.40
2023-01-03T06:52:20.269Z,14.80
2023-01-03T06:53:20.280Z,12.90
2023-01-03T06:54:20.312Z,12.40
2023-01-03T06:55:20.375Z,11.50
2023-01-03T06:56:20.244Z,12.30
2023-01-03T06:57:25.696Z,9.50
2023-01-03T06:58:21.986Z,12.00
2023-01-03T06:59:20.218Z,12.80
2023-01-03T07:00:20.245Z,13.00
2023-01-03T07:01:20.282Z,15.10
2023-01-03T07:02:20.312Z,13.90
2023-01-03T07:03:20.190Z,12.60
2023-01-03T07:04:20.220Z,13.10
2023-01-03T07:05:20.182Z,12.00
2023-01-03T07:06:20.189Z,12.40
2023-01-03T07:07:20.168Z,11.40
2023-01-03T07:08:20.147Z,10.80
2023-01-03T07:09:20.143Z,9.70
2023-01-03T07:10:20.135Z,9.20
2023-01-03T07:11:20.158Z,9.20
2023-01-03T07:12:20.122Z,8.70
2023-01-03T07:13:20.116Z,10.10
2023-01-03T07:14:20.144Z,9.20
2023-01-03T07:15:20.103Z,10.80
2023-01-03T07:16:20.205Z,9.60
2023-01-03T07:17:20.095Z,10.60
2023-01-03T07:18:20.076Z,11.20
2023-01-03T07:19:20.075Z,10.80
2023-01-03T07:20:20.069Z,11.70
2023-01-03T07:21:20.082Z,11.50
2023-01-03T07:22:20.052Z,11.40
2023-01-03T07:23:20.044Z,13.80
2023-01-03T07:24:20.039Z,13.10
2023-01-03T07:25:20.038Z,12.80
2023-01-03T07:26:20.054Z,11.90
2023-01-03T07:27:20.008Z,11.10
2023-01-03T07:28:19.994Z,13.10
2023-01-03T07:29:20.016Z,11.00
2023-01-03T07:30:19.988Z,11.60
2023-01-03T07:31:20.049Z,11.90
2023-01-03T07:32:19.993Z,12.00
2023-01-03T07:33:19.958Z,12.20
2023-01-03T07:34:20.004Z,11.10
2023-01-03T07:35:19.957Z,11.60
2023-01-03T07:36:19.999Z,9.70
2023-01-03T07:37:19.942Z,11.80
2023-01-03T07:38:19.932Z,12.20
2023-01-03T07:39:19.919Z,12.60
2023-01-03T07:40:19.911Z,11.40
2023-01-03T07:41:19.950Z,11.70
2023-01-03T07:42:19.894Z,13.30
2023-01-03T07:43:19.922Z,11.80
2023-01-03T07:44:19.884Z,11.60
2023-01-03T07:45:19.871Z,11.20
2023-01-03T07:46:20.005Z,11.20
2023-01-03T07:47:19.866Z,11.10
2023-01-03T07:48:20.889Z,9.70
2023-01-03T07:49:19.842Z,11.30
2023-01-03T07:50:19.839Z,11.30
2023-01-03T07:51:19.836Z,11.50
2023-01-03T07:52:19.815Z,14.30
2023-01-03T07:53:19.848Z,12.30
2023-01-03T07:54:19.809Z,12.20
2023-01-03T07:55:19.797Z,16.70
2023-01-03T07:56:19.811Z,18.70
2023-01-03T07:57:19.772Z,26.50
2023-01-03T07:58:19.813Z,25.40
2023-01-03T07:59:19.831Z,22.80
2023-01-03T08:00:19.765Z,18.10
2023-01-03T08:01:19.858Z,16.20
2023-01-03T08:02:19.894Z,16.00
2023-01-03T08:03:19.759Z,16.20
2023-01-03T08:04:19.844Z,16.80
2023-01-03T08:05:19.719Z,13.80
2023-01-03T08:06:19.724Z,13.90
2023-01-03T08:07:19.710Z,12.30
2023-01-03T08:08:19.751Z,12.80
2023-01-03T08:09:19.693Z,13.40
2023-01-03T08:10:19.685Z,14.30
2023-01-03T08:11:19.684Z,15.40
2023-01-03T08:12:19.668Z,15.10
2023-01-03T08:13:19.708Z,15.80
2023-01-03T08:14:25.252Z,15.00
2023-01-03T08:15:21.651Z,14.20
2023-01-03T08:16:19.736Z,12.00
2023-01-03T08:17:19.634Z,13.80
2023-01-03T08:18:19.633Z,15.40
2023-01-03T08:19:19.660Z,13.90
2023-01-03T08:20:19.610Z,13.10
2023-01-03T08:21:19.603Z,12.40
2023-01-03T08:22:19.609Z,14.80
2023-01-03T08:23:19.587Z,16.40
2023-01-03T08:24:19.603Z,15.70
2023-01-03T08:25:19.574Z,15.70
2023-01-03T08:26:19.566Z,16.20
2023-01-03T08:27:19.591Z,17.40
2023-01-03T08:28:19.547Z,14.90
2023-01-03T08:29:19.590Z,16.20
2023-01-03T08:30:19.534Z,14.90
2023-01-03T08:31:19.598Z,16.20
2023-01-03T08:32:19.521Z,14.80
2023-01-03T08:33:19.518Z,15.50
2023-01-03T08:34:25.274Z,15.20
2023-01-03T08:35:21.503Z,17.70
2023-01-03T08:36:19.503Z,17.20
2023-01-03T08:37:19.484Z,14.60
2023-01-03T08:38:19.469Z,15.40
2023-01-03T08:39:19.498Z,15.70
2023-01-03T08:40:19.461Z,17.30
2023-01-03T08:41:19.447Z,15.30
2023-01-03T08:42:19.440Z,15.40
2023-01-03T08:43:19.439Z,15.10
2023-01-03T08:44:19.455Z,15.20
2023-01-03T08:45:19.420Z,13.30
2023-01-03T08:46:19.428Z,14.80
2023-01-03T08:47:19.440Z,13.50
2023-01-03T08:48:19.404Z,11.60
2023-01-03T08:49:19.416Z,14.80
2023-01-03T08:50:19.401Z,12.50
2023-01-03T08:51:19.382Z,12.90
2023-01-03T08:52:19.371Z,14.00
2023-01-03T08:53:19.362Z,13.90
2023-01-03T08:54:19.376Z,16.50
2023-01-03T08:55:19.344Z,21.60
2023-01-03T08:56:19.338Z,21.50
2023-01-03T08:57:19.329Z,20.30
2023-01-03T08:58:19.329Z,20.00
2023-01-03T08:59:19.374Z,20.30
2023-01-03T09:00:19.314Z,20.20
2023-01-03T09:01:19.441Z,19.30
2023-01-03T09:02:19.407Z,17.10
2023-01-03T09:03:19.522Z,17.90
2023-01-03T09:04:19.323Z,16.60
2023-01-03T09:05:19.274Z,15.30
2023-01-03T09:06:19.267Z,15.20
2023-01-03T09:07:19.233Z,16.90
2023-01-03T09:08:20.243Z,15.90
2023-01-03T09:09:19.278Z,13.80
2023-01-03T09:10:19.234Z,13.50
2023-01-03T09:11:19.222Z,12.60
2023-01-03T09:12:19.212Z,12.60
2023-01-03T09:13:19.210Z,12.40
2023-01-03T09:14:19.235Z,10.70
2023-01-03T09:15:19.199Z,10.70
2023-01-03T09:16:19.225Z,11.30
2023-01-03T09:17:19.181Z,11.70
2023-01-03T09:18:19.166Z,10.70
2023-01-03T09:19:19.192Z,10.50
2023-01-03T09:20:19.167Z,9.30
2023-01-03T09:21:19.156Z,11.50
2023-01-03T09:22:19.324Z,11.30
2023-01-03T09:23:19.134Z,10.80
2023-01-03T09:24:19.143Z,11.40
2023-01-03T09:25:19.142Z,10.60
2023-01-03T09:26:19.115Z,10.50
2023-01-03T09:27:19.114Z,9.70
2023-01-03T09:28:19.099Z,11.80
2023-01-03T09:29:19.107Z,11.70
2023-01-03T09:30:19.122Z,12.50
2023-01-03T09:31:19.109Z,11.60
2023-01-03T09:32:19.182Z,11.70
2023-01-03T09:33:19.058Z,12.70
2023-01-03T09:34:19.050Z,10.70
2023-01-03T09:35:19.088Z,11.10
2023-01-03T09:36:19.037Z,10.80
2023-01-03T09:37:19.040Z,13.10
2023-01-03T09:38:19.034Z,13.80
2023-01-03T09:39:19.042Z,11.50
2023-01-03T09:40:19.055Z,11.10
2023-01-03T09:41:18.996Z,11.80
2023-01-03T09:42:18.987Z,11.30
2023-01-03T09:43:25.049Z,12.50
2023-01-03T09:44:20.970Z,14.10
2023-01-03T09:45:18.996Z,13.60
2023-01-03T09:46:18.992Z,12.60
2023-01-03T09:47:19.065Z,10.10
2023-01-03T09:48:18.945Z,10.90
2023-01-03T09:49:18.938Z,9.30
2023-01-03T09:50:34.620Z,9.30
2023-01-03T09:51:25.944Z,10.20
2023-01-03T09:52:20.909Z,10.60
2023-01-03T09:53:18.928Z,9.80
2023-01-03T09:54:18.901Z,10.90
2023-01-03T09:55:18.917Z,11.50
2023-01-03T09:56:18.879Z,11.50
2023-01-03T09:57:23.205Z,9.70
2023-01-03T09:58:20.864Z,10.10
2023-01-03T09:59:18.875Z,13.40
2023-01-03T10:00:18.887Z,10.20
2023-01-03T10:01:18.953Z,10.60
2023-01-03T10:02:18.991Z,10.30
2023-01-03T10:03:18.875Z,10.30
2023-01-03T10:04:18.819Z,11.10
2023-01-03T10:05:18.841Z,11.10
2023-01-03T10:06:18.825Z,12.50
2023-01-03T10:07:18.798Z,10.40
2023-01-03T10:08:18.809Z,11.40
2023-01-03T10:09:18.799Z,9.50
2023-01-03T10:10:18.807Z,10.00
2023-01-03T10:11:18.775Z,10.90
2023-01-03T10:12:18.772Z,11.00
2023-01-03T10:13:20.340Z,11.30
2023-01-03T10:14:19.749Z,12.10
2023-01-03T10:15:18.791Z,10.40
2023-01-03T10:16:18.766Z,9.60
2023-01-03T10:17:18.730Z,10.60
2023-01-03T10:18:18.716Z,10.40
2023-01-03T10:19:18.714Z,10.60
2023-01-03T10:20:18.734Z,11.30
2023-01-03T10:21:18.691Z,10.30
2023-01-03T10:22:18.683Z,12.60
2023-01-03T10:23:18.675Z,12.60
2023-01-03T10:24:18.686Z,10.90
2023-01-03T10:25:18.703Z,11.40
2023-01-03T10:26:51.125Z,11.70
2023-01-03T10:27:18.656Z,10.80
2023-01-03T10:28:18.641Z,11.00
2023-01-03T10:29:18.631Z,11.70
2023-01-03T10:30:18.633Z,11.10
2023-01-03T10:31:18.716Z,11.30
2023-01-03T10:32:18.698Z,11.50
2023-01-03T10:33:18.627Z,11.90
2023-01-03T10:34:18.617Z,12.90
2023-01-03T10:35:18.602Z,11.20
2023-01-03T10:36:18.624Z,11.50
2023-01-03T10:37:18.577Z,11.60
2023-01-03T10:38:18.559Z,11.60
2023-01-03T10:39:18.569Z,13.10
2023-01-03T10:40:18.552Z,13.30
2023-01-03T10:41:18.564Z,13.60
2023-01-03T10:42:18.532Z,14.80
2023-01-03T10:43:18.554Z,13.20
2023-01-03T10:44:18.517Z,14.40
2023-01-03T10:45:18.521Z,17.70
2023-01-03T10:46:18.583Z,16.80
2023-01-03T10:47:18.499Z,16.50
2023-01-03T10:48:18.489Z,15.80
2023-01-03T10:49:27.871Z,15.70
2023-01-03T10:50:20.492Z,11.60
2023-01-03T10:51:18.492Z,12.90
2023-01-03T10:52:18.472Z,11.80
2023-01-03T10:53:19.465Z,11.30
2023-01-03T10:54:18.477Z,10.60
2023-01-03T10:55:19.119Z,11.40
2023-01-03T10:56:18.471Z,10.80
2023-01-03T10:57:18.426Z,11.40
2023-01-03T10:58:18.429Z,13.50
2023-01-03T10:59:18.407Z,13.00
2023-01-03T11:00:18.423Z,10.80
2023-01-03T11:01:18.525Z,10.40
2023-01-03T11:02:18.592Z,11.90
2023-01-03T11:03:18.456Z,11.10
2023-01-03T11:04:18.407Z,10.40
2023-01-03T11:05:18.364Z,9.80
2023-01-03T11:06:18.398Z,9.00
2023-01-03T11:07:18.354Z,11.60
2023-01-03T11:08:18.405Z,11.00
2023-01-03T11:09:18.329Z,10.90
2023-01-03T11:10:18.346Z,10.80
2023-01-03T11:11:18.348Z,12.80
2023-01-03T11:12:18.300Z,12.20
2023-01-03T11:13:18.304Z,10.60
2023-01-03T11:14:18.291Z,9.40
2023-01-03T11:15:18.292Z,10.40
2023-01-03T11:16:18.356Z,10.30
2023-01-03T11:17:18.357Z,10.60
2023-01-03T11:18:18.283Z,11.20
2023-01-03T11:19:18.258Z,10.20
2023-01-03T11:20:18.282Z,11.30
2023-01-03T11:21:18.241Z,11.40
2023-01-03T11:22:18.270Z,11.00
2023-01-03T11:23:18.221Z,9.70
2023-01-03T11:24:18.217Z,10.50
2023-01-03T11:25:18.203Z,9.90
2023-01-03T11:26:18.209Z,12.30
2023-01-03T11:27:18.213Z,10.50
2023-01-03T11:28:18.186Z,10.50
2023-01-03T11:29:18.176Z,12.00
2023-01-03T11:30:18.167Z,13.10
2023-01-03T11:31:18.248Z,13.70
2023-01-03T11:32:18.224Z,12.50
2023-01-03T11:33:20.383Z,11.20
2023-01-03T11:34:19.148Z,12.10
2023-01-03T11:35:23.399Z,13.20
2023-01-03T11:36:20.132Z,11.60
2023-01-03T11:37:18.145Z,12.60
2023-01-03T11:38:18.112Z,9.80
2023-01-03T11:39:21.367Z,9.20
2023-01-03T11:40:20.084Z,10.70
2023-01-03T11:41:18.098Z,10.10
2023-01-03T11:42:18.102Z,10.50
2023-01-03T11:43:18.068Z,11.20
2023-01-03T11:44:18.060Z,11.30
2023-01-03T11:45:18.078Z,11.60
2023-01-03T11:46:18.119Z,10.20
2023-01-03T11:47:18.074Z,12.90
2023-01-03T11:48:18.034Z,9.40
2023-01-03T11:49:18.061Z,10.80
2023-01-03T11:50:18.016Z,10.00
2023-01-03T11:51:18.023Z,10.00
2023-01-03T11:52:18.030Z,10.10
2023-01-03T11:53:18.062Z,10.80
2023-01-03T11:54:17.990Z,10.20
2023-01-03T11:55:17.980Z,9.80
2023-01-03T11:56:17.969Z,8.80
2023-01-03T11:57:17.999Z,7.00
2023-01-03T11:58:17.967Z,10.80
2023-01-03T11:59:17.957Z,7.80
2023-01-03T12:00:17.953Z,9.30
2023-01-03T12:01:17.981Z,8.70
2023-01-03T12:02:18.104Z,8.70
2023-01-03T12:03:18.110Z,8.10
2023-01-03T12:04:17.938Z,7.70
2023-01-03T12:05:17.904Z,7.50
2023-01-03T12:06:17.899Z,7.00
2023-01-03T12:08:19.908Z,9.10
2023-01-03T12:09:17.905Z,8.10
2023-01-03T12:10:17.870Z,8.10
2023-01-03T12:11:17.863Z,7.80
2023-01-03T12:12:17.853Z,10.10
2023-01-03T12:13:18.386Z,7.80
2023-01-03T12:14:17.828Z,6.80
2023-01-03T12:15:17.828Z,6.90
2023-01-03T12:16:17.852Z,7.80
2023-01-03T12:17:17.821Z,4.90
2023-01-03T12:18:17.829Z,7.80
2023-01-03T12:19:17.803Z,7.60
2023-01-03T12:20:17.800Z,6.00
2023-01-03T12:21:17.786Z,5.00
2023-01-03T12:22:17.782Z,5.10
2023-01-03T12:23:17.788Z,5.00
2023-01-03T12:24:17.767Z,5.50
2023-01-03T12:25:17.743Z,4.30
2023-01-03T12:26:17.741Z,5.40
2023-01-03T12:27:17.732Z,6.40
2023-01-03T12:28:17.754Z,6.10
2023-01-03T12:29:17.720Z,4.50
2023-01-03T12:30:17.761Z,4.90
2023-01-03T12:31:17.807Z,4.40
2023-01-03T12:32:17.696Z,5.90
2023-01-03T12:33:17.728Z,3.90
2023-01-03T12:34:17.687Z,12.20
2023-01-03T12:35:17.679Z,9.40
2023-01-03T12:36:17.667Z,9.30
2023-01-03T12:37:17.681Z,10.20
2023-01-03T12:38:17.680Z,9.70
2023-01-03T12:39:17.669Z,9.40
2023-01-03T12:40:17.647Z,6.80
2023-01-03T12:41:17.677Z,5.30
2023-01-03T12:42:18.613Z,5.50
2023-01-03T12:43:17.644Z,6.60
2023-01-03T12:44:17.599Z,6.40
2023-01-03T12:45:17.631Z,5.40
2023-01-03T12:46:17.632Z,5.00
2023-01-03T12:47:17.625Z,5.30
2023-01-03T12:48:17.610Z,5.50
2023-01-03T12:49:17.567Z,6.20
2023-01-03T12:50:17.577Z,5.30
2023-01-03T12:51:17.558Z,5.50
2023-01-03T12:52:17.599Z,7.40
2023-01-03T12:53:17.543Z,4.90
2023-01-03T12:54:17.559Z,22.30
2023-01-03T12:55:17.532Z,12.40
2023-01-03T12:56:17.513Z,5.70
2023-01-03T12:57:18.511Z,6.10
2023-01-03T12:58:17.508Z,4.70
2023-01-03T12:59:17.560Z,6.10
2023-01-03T13:00:17.488Z,5.10
2023-01-03T13:01:17.579Z,5.80
2023-01-03T13:02:17.719Z,6.30
2023-01-03T13:03:17.571Z,5.00
2023-01-03T13:04:22.870Z,6.10
2023-01-03T13:05:19.448Z,5.50
2023-01-03T13:06:17.440Z,6.10
2023-01-03T13:07:17.433Z,6.60
2023-01-03T13:08:17.461Z,6.10